Terminal Aerodrome Forecast
Issued by NWS

Home | Current Version | Previous Version | Text Only | Print | Product List | Glossary On
Versions: 1 2 3 4 5 6 7 8 9 10 11 12 13 14 15 16 17 18 19
000
FTUS43 KAPX 261120
TAFPLN
TAF
KPLN 261120Z 2612/2712 12004KT P6SM -SHRA SCT006 OVC050
      TEMPO 2612/2614 BKN006 OVC050
     FM261400 21007KT P6SM -SHRA SCT015 OVC045
     FM261800 25007KT 6SM -SHRA OVC020
     FM262000 28007KT P6SM -SHRA OVC025
     FM270200 33009KT P6SM VCSH OVC045
     FM270400 32008KT P6SM BKN080=

USA.gov is the U.S. government's official web portal to all federal, state and local government web resources and services.